createdAt,value
2018-09-18T00:00:42.736Z,6.50
2018-09-18T00:03:15.046Z,6.80
2018-09-18T00:05:47.345Z,7.23
2018-09-18T00:08:19.617Z,5.63
2018-09-18T00:10:51.857Z,5.53
2018-09-18T00:13:24.162Z,5.93
2018-09-18T00:15:56.392Z,5.80
2018-09-18T00:18:28.651Z,5.80
2018-09-18T00:21:00.928Z,6.43
2018-09-18T00:23:33.182Z,6.27
2018-09-18T00:26:05.560Z,5.40
2018-09-18T00:28:37.828Z,6.27
2018-09-18T00:31:10.073Z,6.20
2018-09-18T00:33:42.365Z,6.33
2018-09-18T00:36:14.665Z,6.00
2018-09-18T00:38:47.012Z,5.80
2018-09-18T00:41:19.272Z,6.17
2018-09-18T00:43:51.536Z,5.67
2018-09-18T00:46:23.767Z,6.03
2018-09-18T00:48:56.037Z,6.33
2018-09-18T00:51:28.291Z,5.80
2018-09-18T00:54:00.589Z,6.57
2018-09-18T00:56:32.851Z,6.43
2018-09-18T00:59:05.087Z,7.50
2018-09-18T01:01:37.420Z,6.00
2018-09-18T01:04:09.744Z,5.90
2018-09-18T01:06:42.036Z,5.53
2018-09-18T01:09:14.365Z,6.30
2018-09-18T01:11:46.599Z,5.67
2018-09-18T01:14:18.880Z,5.40
2018-09-18T01:16:51.120Z,6.07
2018-09-18T01:19:23.410Z,6.40
2018-09-18T01:21:55.703Z,6.27
2018-09-18T01:24:27.989Z,6.20
2018-09-18T01:27:00.216Z,5.30
2018-09-18T01:29:32.536Z,6.53
2018-09-18T01:32:05.148Z,7.10
2018-09-18T01:34:37.444Z,5.50
2018-09-18T01:37:09.695Z,5.60
2018-09-18T01:39:41.968Z,5.67
2018-09-18T01:42:14.249Z,6.60
2018-09-18T01:44:46.509Z,6.80
2018-09-18T01:47:18.828Z,6.40
2018-09-18T01:49:51.150Z,6.17
2018-09-18T01:52:23.408Z,7.53
2018-09-18T01:54:55.694Z,6.30
2018-09-18T01:57:27.978Z,6.37
2018-09-18T02:00:00.289Z,6.97
2018-09-18T02:02:32.549Z,6.90
2018-09-18T02:05:04.876Z,6.77
2018-09-18T02:07:37.144Z,6.70
2018-09-18T02:10:09.365Z,6.43
2018-09-18T02:12:41.641Z,7.23
2018-09-18T02:15:13.853Z,6.83
2018-09-18T02:17:47.188Z,6.07
2018-09-18T02:20:19.462Z,6.20
2018-09-18T02:22:51.716Z,6.87
2018-09-18T02:25:24.012Z,6.00
2018-09-18T02:27:58.504Z,6.50
2018-09-18T02:30:31.296Z,7.23
2018-09-18T02:33:03.572Z,5.40
2018-09-18T02:35:35.797Z,6.87
2018-09-18T02:38:08.092Z,6.23
2018-09-18T02:40:40.364Z,6.93
2018-09-18T02:43:12.650Z,6.67
2018-09-18T02:45:44.893Z,7.33
2018-09-18T02:48:17.177Z,7.10
2018-09-18T02:50:49.439Z,6.47
2018-09-18T02:53:21.707Z,6.37
2018-09-18T02:55:53.984Z,6.63
2018-09-18T02:58:26.257Z,6.23
2018-09-18T03:00:58.849Z,6.40
2018-09-18T03:03:31.141Z,6.80
2018-09-18T03:06:03.493Z,6.10
2018-09-18T03:08:35.789Z,6.40
2018-09-18T03:11:08.338Z,7.00
2018-09-18T03:13:40.607Z,5.97
2018-09-18T03:16:12.863Z,7.47
2018-09-18T03:18:45.133Z,7.10
2018-09-18T03:21:17.428Z,7.33
2018-09-18T03:23:56.401Z,7.93
2018-09-18T03:26:28.654Z,7.20
2018-09-18T03:29:00.931Z,7.00
2018-09-18T03:31:33.247Z,6.67
2018-09-18T03:34:05.537Z,7.20
2018-09-18T03:36:37.800Z,6.60
2018-09-18T03:39:10.071Z,6.70
2018-09-18T03:41:42.388Z,6.87
2018-09-18T03:44:14.663Z,6.97
2018-09-18T03:46:46.929Z,6.30
2018-09-18T03:49:19.203Z,7.30
2018-09-18T03:51:51.576Z,7.43
2018-09-18T03:54:23.938Z,7.03
2018-09-18T03:56:56.193Z,7.43
2018-09-18T03:59:28.592Z,6.90
2018-09-18T04:02:00.876Z,6.63
2018-09-18T04:04:33.212Z,7.47
2018-09-18T04:07:05.525Z,7.00
2018-09-18T04:09:37.838Z,7.00
2018-09-18T04:12:10.107Z,7.27
2018-09-18T04:14:42.387Z,7.30
2018-09-18T04:17:14.823Z,6.93
2018-09-18T04:19:47.101Z,7.57
2018-09-18T04:22:19.441Z,6.47
2018-09-18T04:24:51.689Z,7.50
2018-09-18T04:27:23.989Z,7.50
2018-09-18T04:29:56.241Z,7.70
2018-09-18T04:32:28.536Z,7.43
2018-09-18T04:35:00.763Z,7.70
2018-09-18T04:37:33.020Z,7.57
2018-09-18T04:40:05.954Z,8.20
2018-09-18T04:42:38.235Z,8.50
2018-09-18T04:45:10.500Z,8.57
2018-09-18T04:47:42.772Z,7.97
2018-09-18T04:50:15.021Z,7.70
2018-09-18T04:52:47.275Z,7.77
2018-09-18T04:55:19.532Z,6.63
2018-09-18T04:57:51.823Z,8.43
2018-09-18T05:00:24.066Z,8.23
2018-09-18T05:02:56.325Z,7.97
2018-09-18T05:05:28.596Z,7.77
2018-09-18T05:08:00.843Z,8.23
2018-09-18T05:10:33.093Z,9.17
2018-09-18T05:13:05.397Z,7.73
2018-09-18T05:15:37.654Z,8.07
2018-09-18T05:18:09.934Z,9.33
2018-09-18T05:20:42.164Z,8.40
2018-09-18T05:23:14.465Z,7.43
2018-09-18T05:25:46.736Z,8.57
2018-09-18T05:28:19.013Z,7.83
2018-09-18T05:30:51.290Z,8.13
2018-09-18T05:33:23.531Z,8.50
2018-09-18T05:35:55.809Z,7.90
2018-09-18T05:38:28.025Z,7.37
2018-09-18T05:41:00.300Z,8.63
2018-09-18T05:43:32.584Z,8.43
2018-09-18T05:46:04.860Z,7.70
2018-09-18T05:48:37.104Z,8.47
2018-09-18T05:51:09.434Z,9.70
2018-09-18T05:53:41.690Z,8.83
2018-09-18T05:56:13.957Z,8.93
2018-09-18T05:58:46.220Z,8.60
2018-09-18T06:01:18.500Z,8.80
2018-09-18T06:03:50.762Z,8.30
2018-09-18T06:06:23.081Z,8.20
2018-09-18T06:08:55.313Z,9.00
2018-09-18T06:11:27.601Z,10.10
2018-09-18T06:13:59.873Z,9.73
2018-09-18T06:16:32.249Z,9.80
2018-09-18T06:19:04.553Z,9.77
2018-09-18T06:21:36.827Z,10.23
2018-09-18T06:24:09.115Z,9.53
2018-09-18T06:26:41.365Z,11.50
2018-09-18T06:29:13.604Z,10.83
2018-09-18T06:31:45.885Z,10.25
2018-09-18T06:34:18.109Z,9.63
2018-09-18T06:36:50.386Z,10.32
2018-09-18T06:39:22.654Z,8.95
2018-09-18T06:41:54.928Z,10.13
2018-09-18T06:44:27.243Z,10.05
2018-09-18T06:46:59.495Z,9.38
2018-09-18T06:49:31.809Z,8.08
2018-09-18T06:52:04.079Z,10.55
2018-09-18T06:54:36.524Z,9.30
2018-09-18T06:57:08.664Z,9.53
2018-09-18T06:59:40.986Z,9.33
2018-09-18T07:02:14.129Z,11.55
2018-09-18T07:04:46.467Z,11.12
2018-09-18T07:07:18.768Z,9.78
2018-09-18T07:09:51.074Z,10.95
2018-09-18T07:12:23.390Z,10.82
2018-09-18T07:14:55.645Z,11.60
2018-09-18T07:17:27.919Z,12.03
2018-09-18T07:20:00.290Z,11.50
2018-09-18T07:22:42.139Z,9.28
2018-09-18T07:25:14.428Z,10.65
2018-09-18T07:27:46.715Z,10.20
2018-09-18T07:30:19.054Z,11.05
2018-09-18T07:32:51.337Z,10.95
2018-09-18T07:35:23.664Z,9.88
2018-09-18T07:37:55.928Z,9.68
2018-09-18T07:40:28.204Z,10.80
2018-09-18T07:43:00.446Z,11.00
2018-09-18T07:45:32.821Z,9.20
2018-09-18T07:48:05.120Z,10.48
2018-09-18T07:50:37.434Z,9.20
2018-09-18T07:53:09.690Z,11.40
2018-09-18T07:55:41.989Z,10.08
2018-09-18T07:58:14.293Z,8.73
2018-09-18T08:00:46.619Z,9.50
2018-09-18T08:03:25.788Z,10.90
2018-09-18T08:05:58.092Z,10.58
2018-09-18T08:08:30.336Z,10.18
2018-09-18T08:11:02.629Z,10.60
2018-09-18T08:13:34.895Z,11.20
2018-09-18T08:16:07.129Z,9.75
2018-09-18T08:18:39.445Z,10.68
2018-09-18T08:21:11.762Z,8.65
2018-09-18T08:23:44.113Z,7.97
2018-09-18T08:26:16.403Z,9.28
2018-09-18T08:28:48.705Z,8.88
2018-09-18T08:31:20.961Z,9.18
2018-09-18T08:33:53.234Z,9.83
2018-09-18T08:36:25.548Z,7.55
2018-09-18T08:39:00.457Z,9.43
2018-09-18T08:41:32.677Z,8.20
2018-09-18T08:44:06.539Z,8.60
2018-09-18T08:46:38.898Z,8.10
2018-09-18T08:49:11.201Z,8.88
2018-09-18T08:51:43.596Z,7.95
2018-09-18T08:54:15.790Z,8.30
2018-09-18T08:56:48.032Z,8.25
2018-09-18T08:59:20.337Z,8.58
2018-09-18T09:01:52.682Z,7.80
2018-09-18T09:04:24.964Z,7.53
2018-09-18T09:06:57.237Z,7.90
2018-09-18T09:09:29.607Z,7.47
2018-09-18T09:12:01.827Z,8.08
2018-09-18T09:14:34.269Z,7.55
2018-09-18T09:17:06.549Z,7.20
2018-09-18T09:19:38.866Z,7.00
2018-09-18T09:22:11.260Z,6.80
2018-09-18T09:24:43.577Z,6.37
2018-09-18T09:27:15.833Z,6.35
2018-09-18T09:29:48.176Z,5.65
2018-09-18T09:32:20.485Z,6.12
2018-09-18T09:34:52.959Z,6.05
2018-09-18T09:37:25.186Z,6.30
2018-09-18T09:39:57.450Z,5.90
2018-09-18T09:42:29.760Z,6.08
2018-09-18T09:45:02.098Z,6.47
2018-09-18T09:47:34.353Z,6.22
2018-09-18T09:50:07.046Z,5.53
2018-09-18T09:52:39.351Z,5.75
2018-09-18T09:55:11.877Z,5.55
2018-09-18T09:57:44.173Z,6.72
2018-09-18T10:00:22.006Z,6.00
2018-09-18T10:02:54.363Z,5.87
2018-09-18T10:05:26.608Z,5.42
2018-09-18T10:07:58.877Z,6.08
2018-09-18T10:10:31.152Z,5.58
2018-09-18T10:13:03.423Z,5.47
2018-09-18T10:15:35.706Z,6.00
2018-09-18T10:18:08.086Z,5.47
2018-09-18T10:20:40.321Z,5.28
2018-09-18T10:23:12.624Z,6.00
2018-09-18T10:25:44.875Z,5.90
2018-09-18T10:28:17.200Z,5.08
2018-09-18T10:30:49.545Z,4.97
2018-09-18T10:33:21.829Z,5.50
2018-09-18T10:35:54.130Z,5.05
2018-09-18T10:38:26.484Z,6.95
2018-09-18T10:40:58.914Z,5.35
2018-09-18T10:43:31.328Z,5.92
2018-09-18T10:46:03.597Z,5.92
2018-09-18T10:48:41.562Z,5.80
2018-09-18T10:51:13.796Z,6.05
2018-09-18T10:53:46.140Z,5.00
2018-09-18T10:56:18.453Z,4.97
2018-09-18T10:58:50.740Z,5.58
2018-09-18T11:01:23.150Z,5.05
2018-09-18T11:03:55.502Z,4.95
2018-09-18T11:06:27.799Z,5.33
2018-09-18T11:09:00.105Z,4.90
2018-09-18T11:11:32.487Z,5.20
2018-09-18T11:14:04.830Z,4.70
2018-09-18T11:16:37.137Z,5.45
2018-09-18T11:19:09.905Z,4.70
2018-09-18T11:21:42.296Z,4.72
2018-09-18T11:24:14.543Z,4.90
2018-09-18T11:26:46.814Z,4.75
2018-09-18T11:29:19.125Z,4.92
2018-09-18T11:31:51.502Z,4.08
2018-09-18T11:34:23.831Z,5.08
2018-09-18T11:36:56.124Z,5.22
2018-09-18T11:39:28.441Z,5.20
2018-09-18T11:42:00.821Z,4.90
2018-09-18T11:44:33.168Z,4.72
2018-09-18T11:47:05.486Z,4.60
2018-09-18T11:49:37.787Z,4.90
2018-09-18T11:52:10.268Z,4.20
2018-09-18T11:54:42.562Z,4.50
2018-09-18T11:57:14.897Z,4.15
2018-09-18T11:59:47.177Z,4.90
2018-09-18T12:02:19.531Z,4.37
2018-09-18T12:04:51.997Z,4.60
2018-09-18T12:07:24.322Z,4.50
2018-09-18T12:09:56.606Z,3.92
2018-09-18T12:12:28.957Z,4.20
2018-09-18T12:15:01.238Z,4.03
2018-09-18T12:17:33.639Z,4.17
2018-09-18T12:20:05.933Z,4.42
2018-09-18T12:22:38.245Z,4.70
2018-09-18T12:25:10.596Z,3.95
2018-09-18T12:27:43.122Z,4.10
2018-09-18T12:30:15.456Z,3.75
2018-09-18T12:32:47.777Z,4.12
2018-09-18T12:35:20.122Z,3.92
2018-09-18T12:37:52.430Z,4.10
2018-09-18T12:40:24.697Z,3.52
2018-09-18T12:42:57.036Z,4.28
2018-09-18T12:45:29.340Z,3.90
2018-09-18T12:48:02.091Z,4.25
2018-09-18T12:50:34.466Z,4.17
2018-09-18T12:53:06.784Z,3.52
2018-09-18T12:55:39.090Z,3.50
2018-09-18T12:58:11.467Z,3.40
2018-09-18T13:00:43.698Z,4.08
2018-09-18T13:03:16.021Z,3.85
2018-09-18T13:05:48.424Z,3.83
2018-09-18T13:08:20.779Z,3.62
2018-09-18T13:10:53.058Z,4.05
2018-09-18T13:13:26.197Z,3.75
2018-09-18T13:15:58.510Z,3.30
2018-09-18T13:18:30.898Z,3.20
2018-09-18T13:21:03.237Z,3.33
2018-09-18T13:23:35.543Z,4.22
2018-09-18T13:26:08.084Z,3.80
2018-09-18T13:28:40.385Z,4.45
2018-09-18T13:31:12.701Z,4.50
2018-09-18T13:33:45.015Z,4.42
2018-09-18T13:36:17.389Z,4.40
2018-09-18T13:38:49.658Z,4.58
2018-09-18T13:41:22.120Z,4.62
2018-09-18T13:43:54.328Z,4.28
2018-09-18T13:46:26.739Z,4.45
2018-09-18T13:48:59.039Z,4.22
2018-09-18T13:51:31.392Z,3.90
2018-09-18T13:54:03.667Z,4.10
2018-09-18T13:56:36.031Z,3.75
2018-09-18T13:59:08.352Z,4.78
2018-09-18T14:01:41.043Z,4.65
2018-09-18T14:04:13.219Z,4.42
2018-09-18T14:06:45.588Z,4.42
2018-09-18T14:09:17.998Z,4.22
2018-09-18T14:11:50.286Z,4.75
2018-09-18T14:14:22.744Z,4.85
2018-09-18T14:16:55.000Z,4.50
2018-09-18T14:19:27.276Z,5.33
2018-09-18T14:21:59.617Z,4.67
2018-09-18T14:24:31.984Z,4.62
2018-09-18T14:27:04.391Z,4.58
2018-09-18T14:29:36.673Z,4.78
2018-09-18T14:32:09.115Z,4.65
2018-09-18T14:34:41.434Z,4.72
2018-09-18T14:37:13.787Z,3.87
2018-09-18T14:39:46.122Z,5.15
2018-09-18T14:42:18.517Z,4.50
2018-09-18T14:44:50.922Z,4.03
2018-09-18T14:47:23.250Z,4.95
2018-09-18T14:49:55.636Z,4.12
2018-09-18T14:52:27.952Z,4.40
2018-09-18T14:55:00.369Z,4.53
2018-09-18T14:57:32.661Z,4.25
2018-09-18T15:00:05.160Z,4.70
2018-09-18T15:02:37.465Z,4.20
2018-09-18T15:05:09.818Z,3.77
2018-09-18T15:07:42.105Z,4.00
2018-09-18T15:10:14.446Z,4.80
2018-09-18T15:12:46.830Z,4.53
2018-09-18T15:15:19.136Z,4.15
2018-09-18T15:17:51.462Z,4.60
2018-09-18T15:20:23.885Z,4.95
2018-09-18T15:22:56.149Z,4.95
2018-09-18T15:25:28.485Z,4.00
2018-09-18T15:28:00.969Z,4.47
2018-09-18T15:30:33.252Z,4.65
2018-09-18T15:33:05.641Z,4.08
2018-09-18T15:35:38.583Z,4.22
2018-09-18T15:38:10.910Z,3.52
2018-09-18T15:40:43.290Z,3.90
2018-09-18T15:43:15.617Z,3.65
2018-09-18T15:45:48.072Z,4.28
2018-09-18T15:48:20.453Z,3.37
2018-09-18T15:50:52.819Z,3.70
2018-09-18T15:53:25.176Z,4.03
2018-09-18T15:55:57.524Z,4.17
2018-09-18T15:58:29.888Z,4.17
2018-09-18T16:01:02.232Z,4.00
2018-09-18T16:03:34.643Z,3.92
2018-09-18T16:06:07.044Z,3.90
2018-09-18T16:08:39.427Z,3.80
2018-09-18T16:11:11.770Z,3.72
2018-09-18T16:13:44.115Z,3.75
2018-09-18T16:16:16.565Z,3.77
2018-09-18T16:18:48.966Z,4.35
2018-09-18T16:21:21.289Z,3.35
2018-09-18T16:23:53.631Z,3.70
2018-09-18T16:26:26.008Z,3.72
2018-09-18T16:28:58.361Z,4.08
2018-09-18T16:31:30.755Z,3.77
2018-09-18T16:34:03.067Z,4.20
2018-09-18T16:36:35.550Z,3.72
2018-09-18T16:39:07.862Z,3.75
2018-09-18T16:41:40.165Z,3.67
2018-09-18T16:44:12.474Z,3.85
2018-09-18T16:46:44.827Z,4.58
2018-09-18T16:49:17.234Z,4.58
2018-09-18T16:51:49.773Z,4.15
2018-09-18T16:54:22.121Z,4.97
2018-09-18T16:56:54.558Z,5.85
2018-09-18T16:59:26.880Z,5.95
2018-09-18T17:01:59.290Z,6.00
2018-09-18T17:04:31.704Z,5.72
2018-09-18T17:07:04.251Z,5.33
2018-09-18T17:09:36.592Z,6.12
2018-09-18T17:12:08.966Z,7.35
2018-09-18T17:14:41.350Z,5.25
2018-09-18T17:17:13.703Z,5.92
2018-09-18T17:19:46.108Z,5.12
2018-09-18T17:22:18.447Z,4.55
2018-09-18T17:24:50.786Z,5.47
2018-09-18T17:27:23.172Z,7.17
2018-09-18T17:29:55.514Z,12.18
2018-09-18T17:32:27.841Z,4.42
2018-09-18T17:35:00.228Z,4.12
2018-09-18T17:37:32.522Z,4.67
2018-09-18T17:40:05.163Z,4.15
2018-09-18T17:42:37.533Z,4.45
2018-09-18T17:45:09.916Z,4.85
2018-09-18T17:47:42.227Z,4.72
2018-09-18T17:50:14.621Z,4.45
2018-09-18T17:52:46.947Z,5.03
2018-09-18T17:55:19.357Z,5.30
2018-09-18T17:57:51.669Z,4.75
2018-09-18T18:00:24.062Z,6.08
2018-09-18T18:02:56.455Z,5.55
2018-09-18T18:05:29.020Z,5.50
2018-09-18T18:08:08.136Z,5.83
2018-09-18T18:10:40.599Z,6.25
2018-09-18T18:13:13.017Z,6.60
2018-09-18T18:15:45.370Z,6.60
2018-09-18T18:18:17.718Z,6.45
2018-09-18T18:20:50.118Z,6.15
2018-09-18T18:23:22.457Z,7.87
2018-09-18T18:25:54.796Z,8.05
2018-09-18T18:28:27.197Z,6.75
2018-09-18T18:30:59.532Z,8.63
2018-09-18T18:33:31.978Z,5.42
2018-09-18T18:36:04.331Z,5.50
2018-09-18T18:38:36.656Z,6.42
2018-09-18T18:41:09.032Z,5.37
2018-09-18T18:43:41.406Z,4.95
2018-09-18T18:46:13.850Z,6.00
2018-09-18T18:48:46.271Z,6.60
2018-09-18T18:51:18.613Z,7.28
2018-09-18T18:53:51.043Z,6.78
2018-09-18T18:56:23.534Z,6.08
2018-09-18T18:58:55.930Z,5.85
2018-09-18T19:01:28.392Z,6.78
2018-09-18T19:04:00.838Z,6.05
2018-09-18T19:06:33.387Z,6.55
2018-09-18T19:09:06.814Z,7.50
2018-09-18T19:11:39.194Z,6.65
2018-09-18T19:14:11.540Z,5.75
2018-09-18T19:16:43.972Z,6.72
2018-09-18T19:19:16.408Z,6.25
2018-09-18T19:21:48.773Z,7.05
2018-09-18T19:24:21.153Z,5.80
2018-09-18T19:26:53.551Z,6.85
2018-09-18T19:29:25.846Z,7.30
2018-09-18T19:31:58.206Z,7.08
2018-09-18T19:34:30.613Z,6.60
2018-09-18T19:37:03.014Z,6.87
2018-09-18T19:39:35.374Z,7.03
2018-09-18T19:42:07.940Z,7.05
2018-09-18T19:44:40.408Z,7.50
2018-09-18T19:47:12.849Z,6.55
2018-09-18T19:49:45.305Z,6.75
2018-09-18T19:52:17.694Z,7.90
2018-09-18T19:54:50.037Z,7.78
2018-09-18T19:57:22.410Z,7.37
2018-09-18T19:59:54.718Z,6.30
2018-09-18T20:02:27.007Z,6.50
2018-09-18T20:04:59.384Z,7.80
2018-09-18T20:07:31.690Z,6.90
2018-09-18T20:10:04.334Z,6.33
2018-09-18T20:12:36.736Z,6.15
2018-09-18T20:15:09.116Z,6.97
2018-09-18T20:17:41.405Z,6.58
2018-09-18T20:20:13.744Z,6.78
2018-09-18T20:22:46.210Z,5.90
2018-09-18T20:25:18.546Z,5.67
2018-09-18T20:27:50.861Z,6.17
2018-09-18T20:30:23.216Z,6.17
2018-09-18T20:32:55.606Z,5.10
2018-09-18T20:35:27.927Z,6.22
2018-09-18T20:38:00.245Z,6.35
2018-09-18T20:40:32.598Z,6.90
2018-09-18T20:43:04.908Z,7.03
2018-09-18T20:45:37.278Z,7.45
2018-09-18T20:48:09.656Z,7.65
2018-09-18T20:50:42.021Z,7.28
2018-09-18T20:53:14.277Z,7.22
2018-09-18T20:55:46.632Z,7.05
2018-09-18T20:58:18.877Z,7.30
2018-09-18T21:00:51.283Z,6.83
2018-09-18T21:03:23.637Z,5.87
2018-09-18T21:05:55.985Z,6.58
2018-09-18T21:08:28.350Z,6.20
2018-09-18T21:11:00.596Z,5.85
2018-09-18T21:13:33.001Z,6.33
2018-09-18T21:16:05.514Z,5.50
2018-09-18T21:18:37.806Z,6.00
2018-09-18T21:21:10.142Z,5.47
2018-09-18T21:23:42.476Z,6.12
2018-09-18T21:26:17.010Z,6.42
2018-09-18T21:28:49.595Z,5.95
2018-09-18T21:31:21.862Z,5.70
2018-09-18T21:33:54.168Z,6.47
2018-09-18T21:36:26.461Z,5.97
2018-09-18T21:38:58.807Z,6.00
2018-09-18T21:41:31.080Z,6.00
2018-09-18T21:44:03.454Z,7.00
2018-09-18T21:46:35.789Z,7.05
2018-09-18T21:49:08.149Z,6.78
2018-09-18T21:51:40.480Z,6.05
2018-09-18T21:54:12.769Z,6.03
2018-09-18T21:56:45.063Z,6.58
2018-09-18T21:59:17.428Z,6.58
2018-09-18T22:01:49.755Z,6.28
2018-09-18T22:04:22.116Z,7.33
2018-09-18T22:06:54.438Z,7.72
2018-09-18T22:09:26.666Z,6.30
2018-09-18T22:11:58.952Z,6.17
2018-09-18T22:14:31.231Z,6.20
2018-09-18T22:17:03.763Z,5.80
2018-09-18T22:19:36.034Z,6.03
2018-09-18T22:22:08.348Z,6.00
2018-09-18T22:24:40.640Z,7.08
2018-09-18T22:27:12.878Z,7.12
2018-09-18T22:29:45.206Z,6.42
2018-09-18T22:32:17.488Z,5.10
2018-09-18T22:34:49.822Z,5.22
2018-09-18T22:37:22.980Z,5.70
2018-09-18T22:39:55.513Z,5.92
2018-09-18T22:42:27.803Z,5.95
2018-09-18T22:45:00.060Z,6.00
2018-09-18T22:47:32.404Z,6.33
2018-09-18T22:50:04.769Z,6.37
2018-09-18T22:52:37.077Z,6.75
2018-09-18T22:55:09.405Z,5.70
2018-09-18T22:57:41.715Z,7.00
2018-09-18T23:00:13.969Z,7.33
2018-09-18T23:02:46.212Z,6.33
2018-09-18T23:05:18.547Z,6.08
2018-09-18T23:07:50.828Z,6.25
2018-09-18T23:10:23.152Z,6.65
2018-09-18T23:12:55.431Z,6.28
2018-09-18T23:15:27.745Z,7.12
2018-09-18T23:18:00.005Z,6.72
2018-09-18T23:20:32.257Z,6.05
2018-09-18T23:23:04.609Z,6.20
2018-09-18T23:25:36.868Z,6.12
2018-09-18T23:28:09.366Z,6.15
2018-09-18T23:30:41.607Z,6.55
2018-09-18T23:33:13.894Z,6.00
2018-09-18T23:35:46.165Z,5.67
2018-09-18T23:38:18.460Z,5.97
2018-09-18T23:40:50.750Z,5.33
2018-09-18T23:43:23.025Z,6.87
2018-09-18T23:45:55.287Z,6.20
2018-09-18T23:48:27.552Z,6.70
2018-09-18T23:50:59.804Z,6.30
2018-09-18T23:53:32.165Z,6.85
2018-09-18T23:56:11.108Z,6.22
2018-09-18T23:58:43.424Z,6.10
